Time;durP1;ratioP1;P1;durP2;ratioP2;P2;SDS_P1;SDS_P2;PMS_P1;PMS_P2;Temp;Humidity;BMP_temperature;BMP_pressure;BME280_temperature;BME280_humidity;BME280_pressure;Samples;Min_cycle;Max_cycle;Signal;HPM_P1;HPM_P2
2022/09/20 00:00:13;;;;;;;;;2.50;2.00;;;;;16.53;36.98;101914.41;5002590;28;45357;-63
2022/09/20 00:02:39;;;;;;;;;3.50;3.00;;;;;16.53;36.93;101924.16;4984774;28;46729;-63
2022/09/20 00:05:05;;;;;;;;;6.00;3.75;;;;;16.50;37.27;101925.09;4984859;28;45247;-63
2022/09/20 00:07:31;;;;;;;;;2.75;2.75;;;;;16.44;36.72;101916.34;5002554;28;45484;-63
2022/09/20 00:09:56;;;;;;;;;3.00;3.00;;;;;16.46;37.05;101928.69;5002283;28;45295;-63
2022/09/20 00:12:22;;;;;;;;;4.00;3.00;;;;;16.38;37.02;101915.59;5001857;28;45927;-63
2022/09/20 00:14:48;;;;;;;;;2.25;2.00;;;;;16.39;37.18;101913.81;5002540;28;45437;-63
2022/09/20 00:17:13;;;;;;;;;3.00;3.00;;;;;16.36;37.26;101914.75;5002368;28;45467;-63
2022/09/20 00:19:39;;;;;;;;;2.00;2.00;;;;;16.33;37.15;101920.09;5002310;28;45496;-63
2022/09/20 00:22:05;;;;;;;;;3.00;2.00;;;;;16.32;37.19;101914.84;4984235;28;46086;-63
2022/09/20 00:24:30;;;;;;;;;5.00;3.25;;;;;16.28;37.06;101915.81;5002339;28;45376;-62
2022/09/20 00:26:56;;;;;;;;;3.00;2.25;;;;;16.24;37.12;101913.19;5002097;28;45710;-62
2022/09/20 00:29:21;;;;;;;;;4.00;2.75;;;;;16.21;37.00;101913.28;5002060;28;45434;-62
2022/09/20 00:31:46;;;;;;;;;1.50;1.50;;;;;16.20;37.50;101914.19;5002040;28;45378;-62
2022/09/20 00:36:56;;;;;;;;;4.00;3.00;;;;;16.16;37.38;101908.94;5001434;28;45316;-62
2022/09/20 00:39:21;;;;;;;;;4.00;3.50;;;;;16.14;37.37;101918.69;4984255;28;46296;-62
2022/09/20 00:41:46;;;;;;;;;3.75;3.00;;;;;16.12;37.70;101915.22;4966185;28;48102;-62
2022/09/20 00:44:42;;;;;;;;;2.75;2.75;;;;;16.10;37.34;101915.25;4993279;28;45326;-62
2022/09/20 00:47:41;;;;;;;;;4.00;4.00;;;;;16.01;37.60;101910.09;4980271;28;45612;-62
2022/09/20 00:50:06;;;;;;;;;2.00;2.00;;;;;16.04;37.57;101915.38;4977273;28;45563;-62
2022/09/20 00:52:34;;;;;;;;;2.00;2.00;;;;;16.00;37.67;101911.00;5001116;28;45382;-62
2022/09/20 00:55:02;;;;;;;;;1.75;0.75;;;;;16.00;37.46;101909.25;5001738;28;45527;-62
2022/09/20 00:57:34;;;;;;;;;2.25;2.25;;;;;15.95;37.65;101915.50;5001392;28;45437;-62
2022/09/20 01:00:00;;;;;;;;;2.75;2.75;;;;;15.95;37.86;101908.47;5001457;28;45345;-62
2022/09/20 01:02:29;;;;;;;;;3.50;2.50;;;;;15.94;38.00;101914.66;5001373;28;47601;-62
2022/09/20 01:04:56;;;;;;;;;3.25;3.25;;;;;15.89;38.06;101906.78;4996881;28;45195;-62
2022/09/20 01:07:23;;;;;;;;;3.25;1.75;;;;;15.90;37.98;101911.19;4995064;28;45255;-62
2022/09/20 01:09:49;;;;;;;;;3.00;2.25;;;;;15.87;37.94;101913.91;4983881;28;45480;-62
2022/09/20 01:12:21;;;;;;;;;1.75;1.75;;;;;15.85;37.92;101913.03;5000867;28;46450;-62
2022/09/20 01:14:50;;;;;;;;;2.25;2.00;;;;;15.84;37.77;101913.94;4984144;28;45365;-62
2022/09/20 01:17:18;;;;;;;;;6.25;3.75;;;;;15.82;37.83;101914.88;5001370;28;45365;-62
2022/09/20 01:20:05;;;;;;;;;3.75;2.75;;;;;15.83;37.99;101916.63;5001322;28;45428;-62
2022/09/20 01:22:52;;;;;;;;;2.75;2.25;;;;;15.80;38.25;101916.63;5001048;28;45224;-62
2022/09/20 01:25:49;;;;;;;;;4.75;4.25;;;;;15.77;37.82;101912.25;5001143;28;45485;-62
2022/09/20 01:28:15;;;;;;;;;4.00;4.00;;;;;15.74;37.97;101910.53;4999755;28;45434;-62
2022/09/20 01:30:55;;;;;;;;;3.25;2.75;;;;;15.74;38.01;101912.31;4982894;28;45610;-62
2022/09/20 01:33:46;;;;;;;;;2.00;1.00;;;;;15.69;38.20;101900.94;5000741;28;47013;-63
2022/09/20 01:36:22;;;;;;;;;3.25;2.75;;;;;15.67;38.23;101900.97;4971595;28;45375;-62
2022/09/20 01:39:15;;;;;;;;;5.50;3.75;;;;;15.64;38.50;101908.94;5001009;28;45391;-64
2022/09/20 01:41:57;;;;;;;;;5.00;2.50;;;;;15.61;38.62;101906.38;5000654;28;45468;-63
2022/09/20 01:44:31;;;;;;;;;4.50;3.00;;;;;15.59;38.14;101909.00;5000700;28;45315;-62
2022/09/20 01:47:10;;;;;;;;;3.25;3.25;;;;;15.59;38.45;101916.97;4985761;28;45461;-62
2022/09/20 01:50:05;;;;;;;;;3.25;1.50;;;;;15.55;38.68;101904.69;5000777;28;45426;-63
2022/09/20 01:53:02;;;;;;;;;3.25;3.25;;;;;15.52;38.41;101904.75;5000507;28;45583;-61
2022/09/20 01:55:55;;;;;;;;;2.50;2.50;;;;;15.50;38.36;101906.53;4989400;28;46559;-62
2022/09/20 01:58:38;;;;;;;;;2.50;2.50;;;;;15.48;38.71;101900.38;5000511;28;45394;-61
2022/09/20 02:01:25;;;;;;;;;3.25;2.50;;;;;15.46;38.46;101899.53;5000592;28;45430;-62
2022/09/20 02:03:53;;;;;;;;;4.25;2.75;;;;;15.44;38.75;101896.03;5000481;28;45465;-61
2022/09/20 02:06:38;;;;;;;;;3.50;3.00;;;;;15.40;38.80;101881.09;5000434;28;45223;-61
2022/09/20 02:09:24;;;;;;;;;3.00;2.75;;;;;15.41;38.49;101890.78;4999606;28;45410;-61
2022/09/20 02:12:23;;;;;;;;;3.75;2.50;;;;;15.39;38.47;101887.28;5000477;28;45452;-61
2022/09/20 02:15:04;;;;;;;;;3.50;2.00;;;;;15.36;38.54;101884.69;4989300;28;45497;-61
2022/09/20 02:17:47;;;;;;;;;3.00;3.00;;;;;15.34;39.00;101881.19;5000296;28;46784;-61
2022/09/20 02:20:43;;;;;;;;;3.25;3.25;;;;;15.32;38.62;101886.53;5000446;28;45386;-62
2022/09/20 02:23:22;;;;;;;;;2.50;2.25;;;;;15.30;38.95;101887.44;4991604;28;45449;-61
2022/09/20 02:26:10;;;;;;;;;4.00;3.25;;;;;15.28;39.21;101880.41;4982269;28;45326;-61
2022/09/20 02:28:54;;;;;;;;;6.00;4.00;;;;;15.25;39.19;101885.72;4999888;28;47074;-61
2022/09/20 02:31:51;;;;;;;;;5.75;3.25;;;;;15.24;38.76;101872.50;4971079;28;45475;-61
2022/09/20 02:34:45;;;;;;;;;4.50;4.00;;;;;15.22;39.12;101880.50;4989937;28;45332;-61
2022/09/20 02:37:29;;;;;;;;;3.75;3.75;;;;;15.21;38.79;101876.09;4978883;28;45303;-61
2022/09/20 02:40:06;;;;;;;;;5.25;3.50;;;;;15.19;39.19;101880.53;4999779;28;46206;-61
2022/09/20 02:42:48;;;;;;;;;2.75;2.25;;;;;15.16;38.87;101893.81;4982074;28;45505;-61
2022/09/20 02:45:40;;;;;;;;;4.00;3.75;;;;;15.13;39.15;101908.88;4986959;28;45381;-62
2022/09/20 02:48:06;;;;;;;;;4.00;4.00;;;;;15.10;39.67;101905.34;4994587;28;45293;-61
2022/09/20 02:50:48;;;;;;;;;2.50;2.50;;;;;15.06;39.13;101898.38;4981815;28;46845;-61
2022/09/20 02:53:38;;;;;;;;;4.00;4.00;;;;;15.06;39.36;101905.44;4999503;28;45318;-61
2022/09/20 02:56:28;;;;;;;;;5.25;4.25;;;;;15.05;39.21;101906.34;4999783;28;45494;-61
2022/09/20 02:59:23;;;;;;;;;7.00;5.00;;;;;15.01;39.54;101908.16;5003195;28;45333;-61
2022/09/20 03:02:14;;;;;;;;;4.25;4.00;;;;;14.99;39.26;101909.94;5006421;28;46459;-61
2022/09/20 03:05:13;;;;;;;;;8.50;5.00;;;;;14.96;39.32;101902.03;4990689;28;45580;-61
2022/09/20 03:08:00;;;;;;;;;5.00;5.00;;;;;14.94;39.55;101896.78;5006313;28;45480;-61
2022/09/20 03:10:53;;;;;;;;;5.75;3.75;;;;;14.91;39.67;101895.94;5006077;28;45809;-61
2022/09/20 03:13:36;;;;;;;;;3.75;1.75;;;;;14.88;39.52;101899.50;4984965;28;47576;-61
2022/09/20 03:16:13;;;;;;;;;3.25;3.25;;;;;14.85;39.45;101899.53;5004442;28;45479;-61
2022/09/20 03:18:41;;;;;;;;;2.50;2.50;;;;;14.85;39.55;101896.88;5006257;28;45547;-61
2022/09/20 03:21:37;;;;;;;;;5.50;4.00;;;;;14.84;39.67;101905.75;4988282;28;45527;-60
2022/09/20 03:24:33;;;;;;;;;3.50;3.50;;;;;14.83;39.62;101909.28;5005778;28;46288;-61
2022/09/20 03:27:23;;;;;;;;;4.75;3.00;;;;;14.81;39.95;101902.28;4986512;28;45477;-61
2022/09/20 03:30:22;;;;;;;;;1.50;1.50;;;;;14.79;39.55;101908.44;4988477;28;45196;-61
2022/09/20 03:33:06;;;;;;;;;5.25;3.25;;;;;14.78;39.72;101909.34;5006039;28;45224;-61
2022/09/20 03:35:56;;;;;;;;;7.25;3.50;;;;;14.76;40.05;101904.97;5005548;28;46490;-61
2022/09/20 03:38:59;;;;;;;;;2.00;2.00;;;;;14.75;39.82;101916.44;5005843;28;45275;-61
2022/09/20 03:41:37;;;;;;;;;3.00;3.00;;;;;14.74;39.77;101912.94;4984473;28;45304;-61
2022/09/20 03:44:29;;;;;;;;;3.00;3.00;;;;;14.74;39.91;101914.69;5005763;28;45335;-61
2022/09/20 03:47:24;;;;;;;;;3.25;3.25;;;;;14.69;39.94;101906.81;4992254;28;46321;-62
2022/09/20 03:50:06;;;;;;;;;3.50;3.00;;;;;14.71;40.29;101909.44;5005427;28;45350;-62
2022/09/20 03:52:59;;;;;;;;;3.00;3.00;;;;;14.70;39.72;101912.97;4988091;28;45501;-62
2022/09/20 03:55:46;;;;;;;;;3.00;3.00;;;;;14.68;40.32;101904.19;4993961;28;45308;-61
2022/09/20 03:58:34;;;;;;;;;8.25;8.25;;;;;14.66;40.17;101908.63;5005457;28;45400;-62
2022/09/20 04:01:24;;;;;;;;;3.25;3.25;;;;;14.65;40.19;101901.59;4986146;28;45476;-62
2022/09/20 04:04:03;;;;;;;;;3.00;2.50;;;;;14.63;40.28;101898.94;5005663;28;45437;-62
2022/09/20 04:06:47;;;;;;;;;3.75;3.00;;;;;14.62;40.53;101898.03;4987906;28;45473;-62
2022/09/20 04:09:47;;;;;;;;;3.75;2.50;;;;;14.61;40.45;101906.88;5004974;28;45946;-61
2022/09/20 04:12:34;;;;;;;;;4.75;3.75;;;;;14.59;40.30;101903.38;5001555;28;45452;-62
2022/09/20 04:15:14;;;;;;;;;4.25;3.75;;;;;14.57;40.55;101902.50;5002582;28;45253;-61
2022/09/20 04:18:00;;;;;;;;;3.75;2.75;;;;;14.57;40.26;101899.00;4981024;28;45320;-62
2022/09/20 04:20:31;;;;;;;;;4.25;3.25;;;;;14.56;40.46;101907.84;4996630;28;46400;-62
2022/09/20 04:23:02;;;;;;;;;6.50;3.50;;;;;14.54;40.19;101910.50;4981129;28;45274;-62
2022/09/20 04:25:43;;;;;;;;;4.25;4.25;;;;;14.54;40.30;101910.50;4998145;28;45627;-62
2022/09/20 04:28:16;;;;;;;;;4.00;3.75;;;;;14.52;40.50;101903.47;5002203;28;45322;-62
2022/09/20 04:30:42;;;;;;;;;3.00;3.00;;;;;14.51;40.68;101909.66;5001744;28;46294;-61
2022/09/20 04:33:20;;;;;;;;;1.75;0.50;;;;;14.46;40.67;101907.06;5001796;28;45455;-63
2022/09/20 04:39:12;;;;;;;;;5.50;4.25;;;;;14.46;40.95;101905.31;5001710;28;45357;-62
2022/09/20 04:42:28;;;;;;;;;2.00;2.00;;;;;14.49;40.55;101911.44;5001429;28;45405;-62
2022/09/20 04:45:09;;;;;;;;;4.50;3.75;;;;;14.46;40.91;101900.03;4982600;28;45477;-61
2022/09/20 04:47:57;;;;;;;;;4.50;3.00;;;;;14.47;40.41;101901.75;4992019;28;45362;-62
2022/09/20 04:50:49;;;;;;;;;5.75;3.25;;;;;14.45;40.97;101908.84;4965490;28;45485;-62
2022/09/20 04:53:24;;;;;;;;;4.50;4.50;;;;;14.45;40.96;101905.31;4983899;28;47451;-63
2022/09/20 04:55:54;;;;;;;;;6.75;5.00;;;;;14.46;40.85;101912.34;5001465;28;45431;-62
2022/09/20 04:59:07;;;;;;;;;3.50;3.50;;;;;14.44;40.52;101912.38;5001469;28;45240;-62
2022/09/20 05:02:02;;;;;;;;;4.50;3.50;;;;;14.43;40.98;101912.41;4961551;28;45430;-62
2022/09/20 05:04:44;;;;;;;;;4.75;4.75;;;;;14.42;41.10;101923.88;4996712;28;45433;-61
2022/09/20 05:07:34;;;;;;;;;4.75;4.75;;;;;14.42;40.86;101923.88;5001669;28;45344;-61
2022/09/20 05:10:33;;;;;;;;;5.25;4.00;;;;;14.39;40.69;101926.53;5001705;28;45654;-62
2022/09/20 05:13:04;;;;;;;;;4.50;4.25;;;;;14.37;41.47;101926.56;4980026;28;45422;-62
2022/09/20 05:15:51;;;;;;;;;5.75;5.75;;;;;14.33;41.02;101922.19;4994731;28;45340;-62
2022/09/20 05:18:49;;;;;;;;;5.50;5.50;;;;;14.34;41.01;101931.00;5001350;28;45468;-62
2022/09/20 05:21:30;;;;;;;;;4.75;4.00;;;;;14.30;41.33;101931.03;5000660;28;45396;-62
2022/09/20 05:24:29;;;;;;;;;5.00;5.00;;;;;14.23;41.07;101926.69;5001022;28;45228;-63
2022/09/20 05:27:11;;;;;;;;;4.00;4.00;;;;;14.24;41.29;101932.88;5000861;28;46222;-60
2022/09/20 05:29:58;;;;;;;;;4.00;4.00;;;;;14.20;41.51;101926.75;5001002;28;45516;-61
2022/09/20 05:32:44;;;;;;;;;6.50;4.00;;;;;14.15;41.10;101931.22;5001018;28;45421;-61
2022/09/20 05:35:27;;;;;;;;;6.50;6.00;;;;;14.11;41.18;101935.66;5000776;28;45402;-59
2022/09/20 05:38:10;;;;;;;;;8.50;6.50;;;;;14.09;41.62;101937.41;5001020;28;46370;-60
2022/09/20 05:41:12;;;;;;;;;6.50;5.75;;;;;14.06;41.62;101936.56;5001528;28;45340;-63
2022/09/20 05:44:01;;;;;;;;;7.75;6.75;;;;;14.02;41.54;101925.16;5001622;28;45275;-62
2022/09/20 05:46:36;;;;;;;;;8.75;8.00;;;;;14.01;41.39;101931.31;5006446;28;45519;-61
2022/09/20 05:49:25;;;;;;;;;5.25;4.50;;;;;13.98;41.88;101931.38;5011170;28;46209;-61
2022/09/20 05:52:21;;;;;;;;;7.75;6.00;;;;;13.96;41.37;101926.09;5006866;28;45428;-61
2022/09/20 05:54:58;;;;;;;;;17.00;15.00;;;;;13.95;41.79;101928.75;4996978;28;45424;-62
2022/09/20 05:57:46;;;;;;;;;9.00;5.25;;;;;13.91;41.72;101930.56;5000434;28;45497;-60
2022/09/20 06:00:21;;;;;;;;;8.75;7.25;;;;;13.92;41.53;101934.06;4988466;28;45254;-60
2022/09/20 06:02:58;;;;;;;;;6.00;5.00;;;;;13.93;41.88;101936.69;5000451;28;45232;-60
2022/09/20 06:05:48;;;;;;;;;6.00;5.00;;;;;13.93;41.85;101939.31;5000654;28;45523;-60
2022/09/20 06:08:38;;;;;;;;;9.75;8.50;;;;;13.93;41.95;101947.25;4988281;28;45328;-60
2022/09/20 06:11:30;;;;;;;;;7.75;6.00;;;;;13.94;41.75;101948.16;4999960;28;45486;-59
2022/09/20 06:14:21;;;;;;;;;8.25;4.00;;;;;13.97;41.87;101950.75;4982421;28;45965;-62
2022/09/20 06:17:05;;;;;;;;;5.25;4.75;;;;;14.01;42.15;101954.25;5003914;28;45335;-62
2022/09/20 06:19:50;;;;;;;;;6.00;5.00;;;;;14.05;41.64;101961.25;5009185;28;45325;-62
2022/09/20 06:22:26;;;;;;;;;6.00;5.00;;;;;14.08;41.95;101955.94;5006616;28;46094;-61
2022/09/20 06:25:11;;;;;;;;;10.00;6.25;;;;;14.14;42.01;101959.41;5005109;28;45409;-62
2022/09/20 06:27:51;;;;;;;;;6.25;4.75;;;;;14.19;42.18;101954.06;4995152;28;45430;-62
2022/09/20 06:30:21;;;;;;;;;8.25;6.25;;;;;14.24;42.62;101961.97;4999645;28;45178;-62
2022/09/20 06:32:58;;;;;;;;;9.00;7.75;;;;;14.27;42.34;101959.28;4999394;28;45479;-62
2022/09/20 06:35:33;;;;;;;;;6.50;5.75;;;;;14.33;42.26;101966.28;5004065;28;45511;-62
2022/09/20 06:43:47;;;;;;;;;7.75;6.00;;;;;14.46;42.61;101957.31;4999639;28;45759;-62
2022/09/20 06:46:14;;;;;;;;;18.25;13.00;;;;;14.53;42.40;101958.13;4999174;28;45533;-61
2022/09/20 06:48:40;;;;;;;;;9.25;7.75;;;;;14.57;42.42;101965.13;5012132;28;45416;-61
2022/09/20 06:51:08;;;;;;;;;6.75;5.50;;;;;14.61;42.58;101961.56;4997993;28;45642;-61
2022/09/20 06:53:37;;;;;;;;;8.75;7.00;;;;;14.65;42.53;101958.00;4999251;28;45580;-60
2022/09/20 06:56:03;;;;;;;;;7.50;6.75;;;;;14.69;42.68;101959.75;4999221;28;45330;-61
2022/09/20 06:58:28;;;;;;;;;8.75;5.00;;;;;14.71;42.37;101963.22;4999880;28;45474;-61
2022/09/20 07:00:53;;;;;;;;;11.00;7.00;;;;;14.75;42.30;101951.72;4999754;28;45267;-60
2022/09/20 07:03:19;;;;;;;;;5.25;4.50;;;;;14.82;42.61;101959.56;4981937;28;45394;-61
2022/09/20 07:05:45;;;;;;;;;5.00;5.00;;;;;14.86;42.25;101961.28;4999627;28;45329;-61
2022/09/20 07:08:11;;;;;;;;;6.50;4.75;;;;;14.86;42.64;101956.88;4982419;28;45339;-61
2022/09/20 07:10:37;;;;;;;;;5.50;5.00;;;;;14.92;42.61;101961.22;4979737;28;45362;-61
2022/09/20 07:13:03;;;;;;;;;5.25;5.25;;;;;14.94;42.70;101967.34;4999309;28;46484;-61
2022/09/20 07:15:33;;;;;;;;;6.25;5.50;;;;;14.99;42.18;101972.59;4999492;28;45438;-62
2022/09/20 07:17:59;;;;;;;;;7.75;6.25;;;;;15.02;42.48;101978.72;4999952;28;45346;-61
2022/09/20 07:20:24;;;;;;;;;6.00;5.00;;;;;15.05;42.30;101978.69;4999541;28;45332;-61
2022/09/20 07:22:49;;;;;;;;;9.75;6.00;;;;;15.07;42.48;101973.38;4999747;28;46193;-61
2022/09/20 07:25:17;;;;;;;;;7.25;6.25;;;;;15.11;42.12;101970.66;4999090;28;45468;-61
2022/09/20 07:27:43;;;;;;;;;8.25;6.25;;;;;15.16;42.20;101975.03;4999979;28;45292;-62
2022/09/20 07:30:09;;;;;;;;;4.50;3.75;;;;;15.19;42.38;101978.47;4999410;28;45469;-62
2022/09/20 07:32:35;;;;;;;;;7.50;6.00;;;;;15.22;42.68;101978.47;4999478;28;46099;-60
2022/09/20 07:35:00;;;;;;;;;8.00;5.50;;;;;15.21;42.57;101970.53;4999309;28;45339;-60
2022/09/20 07:37:26;;;;;;;;;8.25;7.25;;;;;15.31;42.49;101987.16;4999682;28;45349;-62
2022/09/20 07:39:51;;;;;;;;;8.25;6.00;;;;;15.32;42.65;101979.22;4999337;28;45343;-60
2022/09/20 07:42:16;;;;;;;;;9.00;8.00;;;;;15.34;42.58;101980.03;4998643;28;53600;-60
2022/09/20 07:44:42;;;;;;;;;8.50;6.50;;;;;15.43;42.60;101990.53;5000130;28;52140;-60
2022/09/20 07:47:09;;;;;;;;;5.50;5.50;;;;;15.45;42.77;101998.44;5003159;28;45476;-60
2022/09/20 07:49:35;;;;;;;;;9.25;6.00;;;;;15.50;42.52;101995.72;5002612;28;45227;-60
2022/09/20 07:52:01;;;;;;;;;5.25;4.50;;;;;15.55;42.64;101996.53;5002510;28;46323;-60
2022/09/20 07:54:27;;;;;;;;;4.75;4.00;;;;;15.61;42.34;102007.03;5002491;28;45595;-60
2022/09/20 07:56:52;;;;;;;;;8.00;7.00;;;;;15.66;42.28;102007.84;4981755;28;45212;-60
2022/09/20 07:59:18;;;;;;;;;6.25;5.50;;;;;15.70;42.48;102006.88;4998609;28;45322;-60
2022/09/20 08:01:43;;;;;;;;;13.25;8.25;;;;;15.76;42.41;102000.63;5002453;28;46172;-60
2022/09/20 08:04:10;;;;;;;;;8.75;6.75;;;;;15.74;42.54;102000.63;5002485;28;45330;-61
2022/09/20 08:06:37;;;;;;;;;6.00;6.00;;;;;15.87;42.27;102000.47;5002804;28;45318;-61
2022/09/20 08:09:03;;;;;;;;;8.25;7.25;;;;;15.91;42.48;101997.75;5002284;28;45444;-61
2022/09/20 08:11:29;;;;;;;;;8.25;7.25;;;;;15.99;42.40;102004.72;5002153;28;46476;-61
2022/09/20 08:13:57;;;;;;;;;5.00;5.00;;;;;16.05;42.59;102012.53;5002042;28;45255;-61
2022/09/20 08:16:22;;;;;;;;;9.50;7.75;;;;;16.06;42.56;102003.69;5002561;28;45368;-61
2022/09/20 08:18:56;;;;;;;;;8.25;7.00;;;;;16.18;42.72;102010.56;5002364;28;45246;-61
2022/09/20 08:21:23;;;;;;;;;8.00;8.00;;;;;16.22;42.79;102007.81;4981228;28;47182;-61
2022/09/20 08:23:49;;;;;;;;;10.75;7.75;;;;;16.28;42.41;102017.47;4999651;28;45610;-61
2022/09/20 08:26:19;;;;;;;;;6.00;6.00;;;;;16.34;42.76;102013.81;5002152;28;45333;-61
2022/09/20 08:28:45;;;;;;;;;10.50;8.00;;;;;16.40;42.42;102019.91;5000748;28;45624;-61
2022/09/20 08:31:18;;;;;;;;;8.00;6.75;;;;;16.45;42.26;102017.13;5002020;28;46163;-61
2022/09/20 08:33:44;;;;;;;;;9.50;8.25;;;;;16.50;42.76;102020.59;5001930;28;45564;-61
2022/09/20 08:36:13;;;;;;;;;12.75;8.75;;;;;16.55;42.44;102025.81;5002101;28;45323;-61
2022/09/20 08:38:39;;;;;;;;;11.75;7.00;;;;;16.61;42.57;102033.66;5001794;28;45434;-61
2022/09/20 08:41:11;;;;;;;;;9.50;8.00;;;;;16.65;42.33;102032.69;5000917;28;46334;-61
2022/09/20 08:44:01;;;;;;;;;9.75;9.25;;;;;16.73;42.47;102029.91;5001770;28;45216;-61
2022/09/20 08:46:38;;;;;;;;;8.00;6.75;;;;;16.79;42.80;102035.09;5001901;28;45329;-61
2022/09/20 08:49:06;;;;;;;;;10.00;10.00;;;;;16.83;42.60;102028.81;4984063;28;45405;-61
2022/09/20 08:51:36;;;;;;;;;6.50;6.25;;;;;16.88;42.49;102029.59;4983770;28;47210;-61
2022/09/20 08:54:03;;;;;;;;;15.50;11.50;;;;;16.94;42.30;102031.25;5001554;28;45476;-61
2022/09/20 08:56:33;;;;;;;;;11.50;8.75;;;;;16.98;42.48;102030.31;5000631;28;45518;-61
2022/09/20 08:58:59;;;;;;;;;11.25;9.00;;;;;17.04;42.20;102030.19;5001452;28;45263;-61
2022/09/20 09:01:28;;;;;;;;;9.00;7.25;;;;;17.10;42.42;102034.47;4980074;28;45401;-60
2022/09/20 09:04:16;;;;;;;;;13.25;12.25;;;;;17.16;42.43;102039.66;4999776;28;45291;-60
2022/09/20 09:06:43;;;;;;;;;13.25;9.25;;;;;17.21;42.38;102037.78;5001618;28;45416;-61
2022/09/20 09:09:28;;;;;;;;;9.50;8.75;;;;;17.28;42.22;102041.22;4980344;28;45452;-61
2022/09/20 09:11:57;;;;;;;;;11.75;8.00;;;;;17.30;42.46;102036.72;4983378;28;46286;-60
2022/09/20 09:17:11;;;;;;;;;13.00;12.00;;;;;17.43;42.50;102041.75;4998305;28;45383;-60
2022/09/20 09:19:54;;;;;;;;;6.75;6.75;;;;;17.48;42.08;102046.09;5001333;28;45496;-61
2022/09/20 09:22:38;;;;;;;;;9.00;7.75;;;;;17.53;42.19;102048.63;4983386;28;46171;-60
2022/09/20 09:25:22;;;;;;;;;9.75;8.00;;;;;17.58;41.91;102038.75;5000028;28;45493;-61
2022/09/20 09:27:58;;;;;;;;;7.75;6.00;;;;;17.63;42.36;102043.97;5001170;28;45335;-60
2022/09/20 09:30:37;;;;;;;;;8.50;6.00;;;;;17.68;41.99;102047.38;4980208;28;45467;-62
2022/09/20 09:33:28;;;;;;;;;9.00;8.00;;;;;17.72;42.04;102046.41;4995191;28;46426;-61
2022/09/20 09:36:03;;;;;;;;;9.75;7.00;;;;;17.77;41.74;102040.97;5001035;28;45298;-61
2022/09/20 09:38:31;;;;;;;;;10.50;8.00;;;;;17.79;42.03;102040.03;5001193;28;45395;-62
2022/09/20 09:40:59;;;;;;;;;10.00;7.25;;;;;17.83;42.07;102047.03;5000808;28;45216;-62
2022/09/20 09:43:28;;;;;;;;;7.00;5.50;;;;;17.86;41.63;102038.97;5000675;28;46902;-62
2022/09/20 09:46:14;;;;;;;;;9.50;6.75;;;;;17.93;42.01;102049.47;5001029;28;45429;-61
2022/09/20 09:48:39;;;;;;;;;5.75;5.75;;;;;17.96;42.11;102045.00;5000997;28;45238;-62
2022/09/20 09:51:08;;;;;;;;;6.50;6.50;;;;;17.99;41.96;102042.25;5000704;28;45251;-61
2022/09/20 09:53:34;;;;;;;;;5.75;4.50;;;;;18.02;41.63;102044.84;5000467;28;45414;-62
2022/09/20 09:56:23;;;;;;;;;9.50;6.50;;;;;18.06;41.65;102045.63;5000502;28;45338;-62
2022/09/20 09:59:14;;;;;;;;;9.00;7.75;;;;;18.11;41.82;102045.50;4979678;28;45435;-62
2022/09/20 10:02:30;;;;;;;;;7.75;6.25;;;;;18.14;42.02;102037.47;4989722;28;45481;-62
2022/09/20 10:05:08;;;;;;;;;7.25;5.50;;;;;18.18;41.91;102037.31;4965191;28;45519;-61
2022/09/20 10:07:45;;;;;;;;;6.50;6.50;;;;;18.22;41.81;102037.28;4997948;28;45520;-61
2022/09/20 10:10:45;;;;;;;;;7.00;4.50;;;;;18.28;41.46;102034.44;5000698;28;45180;-61
2022/09/20 10:13:21;;;;;;;;;5.00;4.50;;;;;18.33;41.83;102036.06;5000496;28;45557;-62
2022/09/20 10:15:59;;;;;;;;;7.75;6.50;;;;;18.38;41.63;102027.97;4982762;28;45434;-62
2022/09/20 10:18:47;;;;;;;;;7.00;6.00;;;;;18.43;41.69;102030.50;5000489;28;45322;-61
2022/09/20 10:21:23;;;;;;;;;6.75;5.75;;;;;18.47;41.38;102033.03;5000525;28;45260;-62
2022/09/20 10:24:18;;;;;;;;;7.25;6.25;;;;;18.54;41.45;102032.88;5000355;28;45405;-62
2022/09/20 10:26:55;;;;;;;;;8.50;7.75;;;;;18.61;41.40;102031.78;5000046;28;45476;-62
2022/09/20 10:29:29;;;;;;;;;4.25;3.25;;;;;18.68;41.68;102030.72;5000313;28;45321;-62
2022/09/20 10:32:04;;;;;;;;;4.00;4.00;;;;;18.75;41.47;102023.41;5000198;28;45407;-62
2022/09/20 10:34:38;;;;;;;;;7.00;4.75;;;;;18.82;41.55;102027.66;4999748;28;45655;-61
2022/09/20 10:37:23;;;;;;;;;6.25;5.25;;;;;18.89;41.35;102017.69;4998880;28;45431;-60
2022/09/20 10:40:05;;;;;;;;;3.75;3.25;;;;;18.97;41.49;102021.91;4998867;28;45321;-64
2022/09/20 10:45:48;;;;;;;;;11.50;9.50;;;;;19.15;41.33;102023.16;5000133;28;45163;-62
2022/09/20 10:48:30;;;;;;;;;4.25;4.00;;;;;19.25;41.52;102018.44;4978774;28;48458;-62
2022/09/20 10:51:14;;;;;;;;;4.75;2.00;;;;;19.37;41.22;102027.84;4993926;28;45243;-62
2022/09/20 10:53:50;;;;;;;;;5.75;3.75;;;;;19.46;41.04;102024.03;5000110;28;45164;-62
2022/09/20 10:56:36;;;;;;;;;3.00;2.25;;;;;19.56;41.33;102022.81;4999753;28;45237;-62
2022/09/20 10:59:15;;;;;;;;;4.00;4.00;;;;;19.64;40.74;102019.91;4999885;28;46449;-62
2022/09/20 11:01:53;;;;;;;;;3.00;3.00;;;;;19.74;41.27;102026.69;4999851;28;45333;-62
2022/09/20 11:04:39;;;;;;;;;4.00;3.50;;;;;19.83;40.71;102022.00;4999903;28;45534;-62
2022/09/20 11:07:33;;;;;;;;;4.00;2.25;;;;;19.91;41.03;102018.16;4999917;28;45586;-62
2022/09/20 11:10:13;;;;;;;;;2.25;2.25;;;;;20.01;40.64;102016.03;4999684;28;45337;-61
2022/09/20 11:12:52;;;;;;;;;2.75;2.75;;;;;20.09;40.99;102016.66;4978122;28;45458;-61
2022/09/20 11:15:17;;;;;;;;;4.00;2.00;;;;;20.18;40.40;102012.81;4993461;28;45281;-62
2022/09/20 11:18:00;;;;;;;;;3.50;3.00;;;;;20.26;40.30;102009.88;4999672;28;45302;-61
2022/09/20 11:20:36;;;;;;;;;1.00;1.00;;;;;20.36;40.92;102008.63;5001520;28;45377;-61
2022/09/20 11:23:26;;;;;;;;;2.25;1.75;;;;;20.49;40.27;102018.84;5003119;28;45410;-61
2022/09/20 11:26:00;;;;;;;;;9.25;8.00;;;;;20.55;40.45;102010.63;5001536;28;45231;-61
2022/09/20 11:28:32;;;;;;;;;1.75;1.75;;;;;20.63;40.18;101998.75;5002755;28;45250;-61
2022/09/20 11:31:13;;;;;;;;;1.50;1.00;;;;;20.75;40.14;102004.59;5003096;28;45500;-61
2022/09/20 11:33:38;;;;;;;;;2.25;0.50;;;;;20.85;40.25;102007.81;5002649;28;45972;-61
2022/09/20 11:36:08;;;;;;;;;1.50;1.50;;;;;20.95;40.38;102003.84;4982055;28;45257;-61
2022/09/20 11:38:40;;;;;;;;;3.00;1.75;;;;;21.05;40.00;102005.22;5001627;28;45313;-61
2022/09/20 11:41:24;;;;;;;;;3.00;2.75;;;;;21.18;39.94;102011.00;5002433;28;47243;-61
2022/09/20 11:43:52;;;;;;;;;2.25;2.00;;;;;21.31;40.03;102006.03;5002630;28;45262;-60
2022/09/20 11:46:24;;;;;;;;;1.75;1.00;;;;;21.48;40.03;102001.81;5002750;28;45461;-61
2022/09/20 11:49:01;;;;;;;;;2.00;1.25;;;;;21.65;39.90;101998.50;5002568;28;45360;-60
2022/09/20 11:51:49;;;;;;;;;3.00;1.50;;;;;21.87;39.76;101999.34;5002297;28;46173;-60
2022/09/20 11:54:17;;;;;;;;;2.25;2.00;;;;;22.11;39.45;101995.69;5002373;28;45240;-60
2022/09/20 11:56:50;;;;;;;;;3.00;2.00;;;;;22.39;39.90;101996.25;5002754;28;45320;-60
2022/09/20 11:59:35;;;;;;;;;1.50;1.00;;;;;22.67;39.73;101996.81;5002372;28;45239;-60
2022/09/20 12:02:04;;;;;;;;;3.00;1.00;;;;;22.88;39.40;101994.97;5002323;28;45314;-61
2022/09/20 12:04:34;;;;;;;;;1.00;1.00;;;;;23.10;39.41;101999.31;5002261;28;45422;-61
2022/09/20 12:07:35;;;;;;;;;3.50;2.75;;;;;23.26;39.10;101999.47;5002631;28;45180;-61
2022/09/20 12:10:19;;;;;;;;;4.00;3.00;;;;;23.37;38.85;102000.72;5002373;28;45280;-61
2022/09/20 12:12:49;;;;;;;;;2.75;2.50;;;;;23.47;38.61;101995.78;4980893;28;46732;-61
2022/09/20 12:15:40;;;;;;;;;2.25;1.00;;;;;23.57;38.28;101998.00;4998112;28;45204;-61
2022/09/20 12:18:42;;;;;;;;;3.00;2.00;;;;;23.59;38.19;101988.06;5000382;28;45377;-61
2022/09/20 12:21:12;;;;;;;;;1.25;1.25;;;;;23.64;37.76;101992.25;4969862;28;45545;-61
2022/09/20 12:23:41;;;;;;;;;1.00;1.00;;;;;23.63;37.65;101992.31;4983769;28;48573;-62
2022/09/20 12:26:21;;;;;;;;;1.75;0.50;;;;;23.59;37.37;101991.59;5001646;28;45315;-62
2022/09/20 12:28:54;;;;;;;;;1.00;1.00;;;;;23.54;37.40;101989.13;4982855;28;45433;-62
2022/09/20 12:31:30;;;;;;;;;0.25;0.25;;;;;23.51;37.15;101991.97;5000624;28;45405;-61